Historyczne dane pomiarowe

Dodano dane terminowe – wersja testowa.

Dane z okresu 1951-2019

Wersja bazy: 1.34 [2019-03-16, lista zmian], aktualizacja planowana na 2019-04-15

Dane meteo z obszaru Polski uzyskane na podstawie danych udostępnionych przez Instytut Meteorologii i Gospodarki Wodnej – Państwowy Instytut Badawczy.

 

Wybierz Datę:    

       

TemperaturaWilgotnośćZachmurzenieWiatrCiśnienieWidzialnośćZjawiska
 Data    tng td wb rh cc ccl cl cm ch dir g1 g2 mslp ppp      
1999-08-14 00:00:00 2.1--- 2.1 2.1100wxwx5wx--- 797.5 0.0---wxw1
1999-08-14 01:00:00 1.6--- 1.6 1.6100wxwx5wx--- 797.2----wxw1
1999-08-14 02:00:00 1.1--- 1.1 1.1100wxwx4wx--- 797.0----wxw1
1999-08-14 03:00:00 1.1--- 1.1 1.1100wxwx4wx--- 796.9----wxw1
1999-08-14 04:00:00 0.9--- 0.9 0.9100wxwx4wx--- 796.8----wxw1
1999-08-14 05:00:00 1.0--- 1.0 1.0100wxwx5wx--- 796.8----wxw1
1999-08-14 06:00:00 0.8--- 0.8 0.8100wxwxwx5wx--- 797.1 0.0---wxw1
1999-08-14 07:00:00 1.2--- 1.2 1.2100wxwxwx3wx--- 797.4----wx
1999-08-14 08:00:00 2.0--- 0.9 1.693wxwxwx2wx--- 797.5----wx
1999-08-14 09:00:00 3.1--- 1.7 2.490wxwxwx2wx--- 797.7----wxw1
1999-08-14 10:00:00 4.4--- 1.5 3.181wxwxwx1wx--- 797.7----wx
1999-08-14 11:00:00 5.4--- 0.4 3.270wxwxwx3wx--- 797.7----wx
1999-08-14 12:00:00 7.2--- 2.5 5.072wxwxwx2wx--- 797.6 0.0---wxw1
1999-08-14 13:00:00 6.7--- 2.7 4.875wxwxwx1wx--- 797.6----wx
1999-08-14 14:00:00 6.6--- 2.9 4.877wxwxwx1wx--- 797.4----wx
1999-08-14 15:00:00 7.0--- 3.1 5.176wxwxwxwx2wx--- 797.4----wx
1999-08-14 16:00:00 6.0--- 2.5 4.377wxwxwxwx2wx--- 797.3----wx
1999-08-14 17:00:00 5.2--- 2.5 4.083wxwxwxwx2wx--- 797.2----wx
1999-08-14 18:00:00 5.0--- 3.4 4.289wxwxwxwx0wx--- 797.2 0.0---wx
1999-08-14 19:00:00 3.8--- 1.9 2.987wxwxwxwx0wx--- 797.2----wx
1999-08-14 20:00:00 3.3--- 1.5 2.588wxwxwx1wx--- 797.0----wx
1999-08-14 21:00:00 3.1--- 0.9 2.185wxwx4wx--- 796.8----wx
1999-08-14 22:00:00 3.2--- 0.4 2.081wxwx8wx--- 796.3----wx
1999-08-14 23:00:00 3.0--- 0.9 2.186wxwx9wx--- 796.2----wx

 

Źródłem pochodzenia danych jest Instytut Meteorologii i Gospodarki Wodnej – Państwowy Instytut Badawczy. Dane Instytutu Meteorologii i Gospodarki Wodnej – Państwowego Instytutu Badawczego zostały przetworzone.

Dane źródłowe można odnaleźć na stronie https://dane.imgw.pl